sensor_id;sensor_type;location;lat;lon;timestamp;pressure;altitude;pressure_sealevel;temperature;humidity
74615;BME280;63121;51.458;-0.110;2022-12-07T00:01:12;102220.81;;;8.40;63.92
74615;BME280;63121;51.458;-0.110;2022-12-07T00:03:39;102214.38;;;8.57;63.00
74615;BME280;63121;51.458;-0.110;2022-12-07T00:06:06;102219.81;;;8.72;62.70
74615;BME280;63121;51.458;-0.110;2022-12-07T00:08:32;102218.69;;;8.58;62.98
74615;BME280;63121;51.458;-0.110;2022-12-07T00:11:03;102217.25;;;8.71;62.33
74615;BME280;63121;51.458;-0.110;2022-12-07T00:13:29;102209.72;;;8.82;62.53
74615;BME280;63121;51.458;-0.110;2022-12-07T00:15:54;102213.13;;;8.79;62.12
74615;BME280;63121;51.458;-0.110;2022-12-07T00:18:20;102217.28;;;8.74;62.24
74615;BME280;63121;51.458;-0.110;2022-12-07T00:20:46;102219.81;;;8.72;62.57
74615;BME280;63121;51.458;-0.110;2022-12-07T00:23:11;102210.06;;;9.00;61.90
74615;BME280;63121;51.458;-0.110;2022-12-07T00:25:36;102216.97;;;8.59;62.77
74615;BME280;63121;51.458;-0.110;2022-12-07T00:28:02;102210.44;;;8.37;63.74
74615;BME280;63121;51.458;-0.110;2022-12-07T00:30:29;102214.91;;;8.42;63.10
74615;BME280;63121;51.458;-0.110;2022-12-07T00:32:54;102212.72;;;8.61;62.47
74615;BME280;63121;51.458;-0.110;2022-12-07T00:35:19;102213.66;;;8.64;62.22
74615;BME280;63121;51.458;-0.110;2022-12-07T00:37:45;102212.81;;;8.65;62.20
74615;BME280;63121;51.458;-0.110;2022-12-07T00:40:10;102221.75;;;8.42;62.83
74615;BME280;63121;51.458;-0.110;2022-12-07T00:42:36;102220.22;;;8.13;63.92
74615;BME280;63121;51.458;-0.110;2022-12-07T00:45:01;102206.97;;;8.34;63.71
74615;BME280;63121;51.458;-0.110;2022-12-07T00:47:26;102207.06;;;8.38;63.35
74615;BME280;63121;51.458;-0.110;2022-12-07T00:49:52;102214.13;;;8.08;63.93
74615;BME280;63121;51.458;-0.110;2022-12-07T00:52:17;102201.56;;;7.84;65.11
74615;BME280;63121;51.458;-0.110;2022-12-07T00:54:42;102211.97;;;7.56;65.68
74615;BME280;63121;51.458;-0.110;2022-12-07T00:57:08;102212.28;;;7.68;65.68
74615;BME280;63121;51.458;-0.110;2022-12-07T00:59:33;102211.13;;;7.57;65.23
74615;BME280;63121;51.458;-0.110;2022-12-07T01:01:58;102209.78;;;7.36;66.02
74615;BME280;63121;51.458;-0.110;2022-12-07T01:04:24;102214.19;;;7.08;66.89
74615;BME280;63121;51.458;-0.110;2022-12-07T01:06:49;102204.59;;;7.03;67.58
74615;BME280;63121;51.458;-0.110;2022-12-07T01:09:14;102204.50;;;7.00;67.30
74615;BME280;63121;51.458;-0.110;2022-12-07T01:11:40;102205.09;;;7.21;67.01
74615;BME280;63121;51.458;-0.110;2022-12-07T01:14:05;102202.59;;;7.24;66.34
74615;BME280;63121;51.458;-0.110;2022-12-07T01:16:32;102193.06;;;7.20;67.04
74615;BME280;63121;51.458;-0.110;2022-12-07T01:18:59;102203.84;;;7.39;66.39
74615;BME280;63121;51.458;-0.110;2022-12-07T01:21:30;102203.91;;;7.42;66.44
74615;BME280;63121;51.458;-0.110;2022-12-07T01:24:00;102205.81;;;7.49;66.01
74615;BME280;63121;51.458;-0.110;2022-12-07T01:26:26;102198.81;;;7.43;66.07
74615;BME280;63121;51.458;-0.110;2022-12-07T01:28:51;102202.69;;;7.27;66.72
74615;BME280;63121;51.458;-0.110;2022-12-07T01:31:24;102201.78;;;7.25;67.04
74615;BME280;63121;51.458;-0.110;2022-12-07T01:33:52;102196.28;;;7.80;64.72
74615;BME280;63121;51.458;-0.110;2022-12-07T01:36:27;102190.09;;;7.71;65.27
74615;BME280;63121;51.458;-0.110;2022-12-07T01:39:02;102189.44;;;7.45;65.90
74615;BME280;63121;51.458;-0.110;2022-12-07T01:41:33;102194.69;;;7.17;66.46
74615;BME280;63121;51.458;-0.110;2022-12-07T01:44:27;102192.16;;;7.18;66.95
74615;BME280;63121;51.458;-0.110;2022-12-07T01:47:00;102194.09;;;7.27;66.75
74615;BME280;63121;51.458;-0.110;2022-12-07T01:49:48;102193.66;;;7.10;66.78
74615;BME280;63121;51.458;-0.110;2022-12-07T01:52:18;102195.59;;;7.19;67.13
74615;BME280;63121;51.458;-0.110;2022-12-07T01:54:47;102193.47;;;7.04;67.23
74615;BME280;63121;51.458;-0.110;2022-12-07T01:57:15;102198.38;;;6.95;67.41
74615;BME280;63121;51.458;-0.110;2022-12-07T01:59:43;102193.97;;;6.90;67.70
74615;BME280;63121;51.458;-0.110;2022-12-07T02:02:20;102204.44;;;6.97;67.80
74615;BME280;63121;51.458;-0.110;2022-12-07T02:04:47;102199.97;;;7.23;66.51
74615;BME280;63121;51.458;-0.110;2022-12-07T02:07:13;102202.72;;;7.29;66.53
74615;BME280;63121;51.458;-0.110;2022-12-07T02:09:38;102201.75;;;7.57;65.27
74615;BME280;63121;51.458;-0.110;2022-12-07T02:12:04;102205.63;;;7.09;66.60
74615;BME280;63121;51.458;-0.110;2022-12-07T02:14:29;102194.41;;;7.39;65.84
74615;BME280;63121;51.458;-0.110;2022-12-07T02:17:31;102193.03;;;7.19;66.71
74615;BME280;63121;51.458;-0.110;2022-12-07T02:20:17;102196.66;;;7.25;66.34
74615;BME280;63121;51.458;-0.110;2022-12-07T02:25:45;102183.25;;;7.37;66.15
74615;BME280;63121;51.458;-0.110;2022-12-07T02:28:30;102183.63;;;7.52;65.65
74615;BME280;63121;51.458;-0.110;2022-12-07T02:31:01;102185.03;;;7.74;64.94
74615;BME280;63121;51.458;-0.110;2022-12-07T02:33:30;102187.31;;;7.99;63.92
74615;BME280;63121;51.458;-0.110;2022-12-07T02:38:38;102193.00;;;7.50;66.30
74615;BME280;63121;51.458;-0.110;2022-12-07T02:41:40;102189.06;;;7.65;65.45
74615;BME280;63121;51.458;-0.110;2022-12-07T02:44:11;102198.44;;;7.28;66.15
74615;BME280;63121;51.458;-0.110;2022-12-07T02:46:42;102192.53;;;7.65;65.40
74615;BME280;63121;51.458;-0.110;2022-12-07T02:49:08;102194.53;;;7.10;66.57
74615;BME280;63121;51.458;-0.110;2022-12-07T02:51:39;102190.88;;;7.69;65.33
74615;BME280;63121;51.458;-0.110;2022-12-07T02:54:14;102185.59;;;7.63;65.32
74615;BME280;63121;51.458;-0.110;2022-12-07T03:10:32;102188.22;;;7.31;65.88
74615;BME280;63121;51.458;-0.110;2022-12-07T03:13:13;102182.63;;;7.14;67.38
74615;BME280;63121;51.458;-0.110;2022-12-07T03:18:17;102169.34;;;6.97;67.20
74615;BME280;63121;51.458;-0.110;2022-12-07T03:20:44;102173.91;;;7.41;65.79
74615;BME280;63121;51.458;-0.110;2022-12-07T03:23:12;102163.97;;;7.20;66.60
74615;BME280;63121;51.458;-0.110;2022-12-07T03:25:45;102161.56;;;7.26;66.45
74615;BME280;63121;51.458;-0.110;2022-12-07T03:28:13;102162.81;;;7.08;66.81
74615;BME280;63121;51.458;-0.110;2022-12-07T03:30:49;102163.53;;;7.36;65.87
74615;BME280;63121;51.458;-0.110;2022-12-07T03:33:32;102163.59;;;7.39;66.06
74615;BME280;63121;51.458;-0.110;2022-12-07T03:36:32;102160.22;;;7.40;65.69
74615;BME280;63121;51.458;-0.110;2022-12-07T03:39:36;102155.19;;;7.81;64.18
74615;BME280;63121;51.458;-0.110;2022-12-07T03:42:05;102149.44;;;7.91;63.93
74615;BME280;63121;51.458;-0.110;2022-12-07T03:44:34;102160.19;;;7.75;64.27
74615;BME280;63121;51.458;-0.110;2022-12-07T03:47:26;102145.06;;;7.87;64.46
74615;BME280;63121;51.458;-0.110;2022-12-07T03:50:07;102145.00;;;7.84;64.16
74615;BME280;63121;51.458;-0.110;2022-12-07T03:53:26;102148.75;;;7.62;65.01
74615;BME280;63121;51.458;-0.110;2022-12-07T03:55:56;102149.91;;;7.75;64.65
74615;BME280;63121;51.458;-0.110;2022-12-07T03:58:23;102145.97;;;7.53;64.87
74615;BME280;63121;51.458;-0.110;2022-12-07T04:00:50;102146.34;;;7.02;66.24
74615;BME280;63121;51.458;-0.110;2022-12-07T04:03:16;102151.56;;;7.37;65.50
74615;BME280;63121;51.458;-0.110;2022-12-07T04:05:42;102149.41;;;7.20;66.01
74615;BME280;63121;51.458;-0.110;2022-12-07T04:08:08;102150.88;;;7.44;65.32
74615;BME280;63121;51.458;-0.110;2022-12-07T04:10:33;102148.75;;;7.27;66.04
74615;BME280;63121;51.458;-0.110;2022-12-07T04:12:59;102148.34;;;7.45;65.62
74615;BME280;63121;51.458;-0.110;2022-12-07T04:15:24;102158.78;;;7.18;66.36
74615;BME280;63121;51.458;-0.110;2022-12-07T04:17:49;102147.97;;;7.30;65.95
74615;BME280;63121;51.458;-0.110;2022-12-07T04:20:16;102150.31;;;7.56;65.33
74615;BME280;63121;51.458;-0.110;2022-12-07T04:22:41;102149.72;;;7.32;66.05
74615;BME280;63121;51.458;-0.110;2022-12-07T04:25:07;102144.84;;;7.43;65.57
74615;BME280;63121;51.458;-0.110;2022-12-07T04:27:32;102137.84;;;7.36;65.30
74615;BME280;63121;51.458;-0.110;2022-12-07T04:29:57;102148.13;;;7.36;65.58
74615;BME280;63121;51.458;-0.110;2022-12-07T04:32:24;102150.59;;;7.33;65.66
74615;BME280;63121;51.458;-0.110;2022-12-07T04:34:49;102152.72;;;7.16;66.05
74615;BME280;63121;51.458;-0.110;2022-12-07T04:37:15;102156.44;;;6.94;66.77
74615;BME280;63121;51.458;-0.110;2022-12-07T04:39:40;102154.28;;;7.09;66.50
74615;BME280;63121;51.458;-0.110;2022-12-07T04:42:06;102161.94;;;7.41;65.43
74615;BME280;63121;51.458;-0.110;2022-12-07T04:44:31;102158.31;;;7.33;65.50
74615;BME280;63121;51.458;-0.110;2022-12-07T04:46:57;102159.19;;;7.00;66.53
74615;BME280;63121;51.458;-0.110;2022-12-07T04:49:23;102163.97;;;7.20;65.79
74615;BME280;63121;51.458;-0.110;2022-12-07T04:51:49;102164.22;;;6.97;66.61
74615;BME280;63121;51.458;-0.110;2022-12-07T04:54:15;102159.53;;;7.14;66.08
74615;BME280;63121;51.458;-0.110;2022-12-07T04:56:41;102168.03;;;7.11;65.81
74615;BME280;63121;51.458;-0.110;2022-12-07T04:59:07;102155.97;;;7.42;65.17
74615;BME280;63121;51.458;-0.110;2022-12-07T05:01:33;102159.81;;;7.25;65.56
74615;BME280;63121;51.458;-0.110;2022-12-07T05:03:59;102148.38;;;7.13;65.98
74615;BME280;63121;51.458;-0.110;2022-12-07T05:06:25;102149.56;;;7.60;64.24
74615;BME280;63121;51.458;-0.110;2022-12-07T05:08:50;102156.47;;;6.96;66.03
74615;BME280;63121;51.458;-0.110;2022-12-07T05:11:16;102153.44;;;6.79;66.53
74615;BME280;63121;51.458;-0.110;2022-12-07T05:14:03;102150.31;;;7.22;65.86
74615;BME280;63121;51.458;-0.110;2022-12-07T05:16:29;102138.22;;;7.51;64.19
74615;BME280;63121;51.458;-0.110;2022-12-07T05:18:54;102142.03;;;7.67;64.11
74615;BME280;63121;51.458;-0.110;2022-12-07T05:21:20;102130.25;;;7.77;63.85
74615;BME280;63121;51.458;-0.110;2022-12-07T05:23:46;102138.66;;;7.35;64.75
74615;BME280;63121;51.458;-0.110;2022-12-07T05:26:11;102137.25;;;7.48;64.45
74615;BME280;63121;51.458;-0.110;2022-12-07T05:28:36;102143.41;;;7.20;65.28
74615;BME280;63121;51.458;-0.110;2022-12-07T05:31:02;102131.53;;;7.25;64.88
74615;BME280;63121;51.458;-0.110;2022-12-07T05:33:28;102139.41;;;7.29;64.58
74615;BME280;63121;51.458;-0.110;2022-12-07T05:35:53;102130.56;;;7.54;63.99
74615;BME280;63121;51.458;-0.110;2022-12-07T05:38:19;102139.97;;;7.54;63.83
74615;BME280;63121;51.458;-0.110;2022-12-07T05:40:44;102140.38;;;7.71;63.41
74615;BME280;63121;51.458;-0.110;2022-12-07T05:43:10;102133.22;;;7.58;63.70
74615;BME280;63121;51.458;-0.110;2022-12-07T05:45:36;102125.44;;;7.92;62.61
74615;BME280;63121;51.458;-0.110;2022-12-07T05:48:01;102132.97;;;7.83;62.47
74615;BME280;63121;51.458;-0.110;2022-12-07T05:50:26;102125.72;;;8.05;62.46
74615;BME280;63121;51.458;-0.110;2022-12-07T05:52:53;102133.47;;;7.68;63.03
74615;BME280;63121;51.458;-0.110;2022-12-07T05:55:18;102128.91;;;7.94;62.10
74615;BME280;63121;51.458;-0.110;2022-12-07T05:57:44;102126.63;;;8.05;61.98
74615;BME280;63121;51.458;-0.110;2022-12-07T06:00:29;102124.81;;;8.03;62.14
74615;BME280;63121;51.458;-0.110;2022-12-07T06:02:54;102118.59;;;8.32;61.57
74615;BME280;63121;51.458;-0.110;2022-12-07T06:05:20;102128.31;;;8.05;61.64
74615;BME280;63121;51.458;-0.110;2022-12-07T06:07:45;102123.53;;;8.22;61.58
74615;BME280;63121;51.458;-0.110;2022-12-07T06:10:10;102120.28;;;8.30;61.60
74615;BME280;63121;51.458;-0.110;2022-12-07T06:12:36;102123.25;;;8.49;60.68
74615;BME280;63121;51.458;-0.110;2022-12-07T06:15:03;102120.25;;;8.29;60.89
74615;BME280;63121;51.458;-0.110;2022-12-07T06:17:29;102119.31;;;8.25;61.39
74615;BME280;63121;51.458;-0.110;2022-12-07T06:19:54;102122.53;;;8.15;61.72
74615;BME280;63121;51.458;-0.110;2022-12-07T06:22:20;102124.47;;;8.25;61.42
74615;BME280;63121;51.458;-0.110;2022-12-07T06:24:45;102129.78;;;8.33;60.80
74615;BME280;63121;51.458;-0.110;2022-12-07T06:27:11;102128.38;;;7.70;62.51
74615;BME280;63121;51.458;-0.110;2022-12-07T06:29:36;102133.16;;;7.91;62.21
74615;BME280;63121;51.458;-0.110;2022-12-07T06:32:02;102124.59;;;7.56;62.55
74615;BME280;63121;51.458;-0.110;2022-12-07T06:34:28;102124.53;;;7.89;62.09
74615;BME280;63121;51.458;-0.110;2022-12-07T06:36:53;102123.09;;;8.02;61.08
74615;BME280;63121;51.458;-0.110;2022-12-07T06:39:25;102128.47;;;8.12;61.05
74615;BME280;63121;51.458;-0.110;2022-12-07T06:41:52;102128.31;;;8.05;61.36
74615;BME280;63121;51.458;-0.110;2022-12-07T06:44:18;102131.72;;;8.04;61.34
74615;BME280;63121;51.458;-0.110;2022-12-07T06:46:44;102127.81;;;8.21;61.17
74615;BME280;63121;51.458;-0.110;2022-12-07T06:49:10;102133.22;;;8.33;60.21
74615;BME280;63121;51.458;-0.110;2022-12-07T06:51:35;102131.84;;;8.49;60.02
74615;BME280;63121;51.458;-0.110;2022-12-07T06:54:05;102140.66;;;8.21;60.69
74615;BME280;63121;51.458;-0.110;2022-12-07T06:56:30;102131.09;;;8.15;61.51
74615;BME280;63121;51.458;-0.110;2022-12-07T06:58:55;102131.53;;;8.35;60.96
74615;BME280;63121;51.458;-0.110;2022-12-07T07:01:21;102135.25;;;8.48;60.56
74615;BME280;63121;51.458;-0.110;2022-12-07T07:03:46;102141.31;;;8.50;60.21
74615;BME280;63121;51.458;-0.110;2022-12-07T07:06:13;102149.88;;;8.11;61.34
74615;BME280;63121;51.458;-0.110;2022-12-07T07:08:39;102145.94;;;8.27;60.68
74615;BME280;63121;51.458;-0.110;2022-12-07T07:11:06;102147.19;;;8.07;61.33
74615;BME280;63121;51.458;-0.110;2022-12-07T07:13:32;102147.47;;;7.81;62.03
74615;BME280;63121;51.458;-0.110;2022-12-07T07:16:01;102154.25;;;7.78;62.23
74615;BME280;63121;51.458;-0.110;2022-12-07T07:18:27;102136.84;;;7.66;62.29
74615;BME280;63121;51.458;-0.110;2022-12-07T07:20:53;102143.84;;;7.37;64.03
74615;BME280;63121;51.458;-0.110;2022-12-07T07:23:20;102144.72;;;7.37;63.31
74615;BME280;63121;51.458;-0.110;2022-12-07T07:25:46;102142.19;;;7.75;62.53
74615;BME280;63121;51.458;-0.110;2022-12-07T07:28:11;102145.66;;;7.41;63.37
74615;BME280;63121;51.458;-0.110;2022-12-07T07:30:37;102139.72;;;7.43;63.39
74615;BME280;63121;51.458;-0.110;2022-12-07T07:33:04;102150.88;;;7.44;62.95
74615;BME280;63121;51.458;-0.110;2022-12-07T07:35:30;102145.63;;;7.74;62.35
74615;BME280;63121;51.458;-0.110;2022-12-07T07:37:56;102144.31;;;7.57;62.45
74615;BME280;63121;51.458;-0.110;2022-12-07T07:40:21;102138.00;;;7.79;61.98
74615;BME280;63121;51.458;-0.110;2022-12-07T07:42:56;102141.53;;;7.84;61.96
74615;BME280;63121;51.458;-0.110;2022-12-07T07:45:24;102143.81;;;8.08;61.13
74615;BME280;63121;51.458;-0.110;2022-12-07T07:47:49;102147.97;;;8.01;60.91
74615;BME280;63121;51.458;-0.110;2022-12-07T07:50:16;102139.75;;;8.19;60.12
74615;BME280;63121;51.458;-0.110;2022-12-07T07:52:42;102152.03;;;8.32;59.96
74615;BME280;63121;51.458;-0.110;2022-12-07T07:55:07;102154.19;;;8.12;60.55
74615;BME280;63121;51.458;-0.110;2022-12-07T07:57:34;102156.09;;;7.83;61.45
74615;BME280;63121;51.458;-0.110;2022-12-07T08:00:00;102156.41;;;7.59;61.77
74615;BME280;63121;51.458;-0.110;2022-12-07T08:02:26;102159.03;;;7.62;61.72
74615;BME280;63121;51.458;-0.110;2022-12-07T08:04:54;102162.91;;;7.81;60.82
74615;BME280;63121;51.458;-0.110;2022-12-07T08:07:20;102161.78;;;7.70;61.46
74615;BME280;63121;51.458;-0.110;2022-12-07T08:09:45;102163.63;;;7.76;61.06
74615;BME280;63121;51.458;-0.110;2022-12-07T08:12:10;102170.28;;;7.32;62.12
74615;BME280;63121;51.458;-0.110;2022-12-07T08:14:36;102162.16;;;7.50;61.85
74615;BME280;63121;51.458;-0.110;2022-12-07T08:17:01;102165.66;;;7.89;60.30
74615;BME280;63121;51.458;-0.110;2022-12-07T08:19:26;102158.63;;;7.80;60.21
74615;BME280;63121;51.458;-0.110;2022-12-07T08:21:52;102157.59;;;8.11;59.32
74615;BME280;63121;51.458;-0.110;2022-12-07T08:24:17;102160.00;;;8.04;59.45
74615;BME280;63121;51.458;-0.110;2022-12-07T08:26:43;102157.09;;;8.28;59.05
74615;BME280;63121;51.458;-0.110;2022-12-07T08:29:08;102147.28;;;8.49;58.17
74615;BME280;63121;51.458;-0.110;2022-12-07T08:31:34;102157.69;;;8.54;58.37
74615;BME280;63121;51.458;-0.110;2022-12-07T08:33:59;102149.13;;;8.55;58.45
74615;BME280;63121;51.458;-0.110;2022-12-07T08:36:25;102154.47;;;8.25;59.00
74615;BME280;63121;51.458;-0.110;2022-12-07T08:38:50;102159.75;;;8.31;59.04
74615;BME280;63121;51.458;-0.110;2022-12-07T08:41:16;102157.00;;;8.23;59.07
74615;BME280;63121;51.458;-0.110;2022-12-07T08:43:42;102159.28;;;8.11;58.68
74615;BME280;63121;51.458;-0.110;2022-12-07T08:48:58;102151.22;;;8.33;58.68
74615;BME280;63121;51.458;-0.110;2022-12-07T08:51:27;102150.06;;;8.19;58.94
74615;BME280;63121;51.458;-0.110;2022-12-07T08:53:54;102149.75;;;8.05;59.20
74615;BME280;63121;51.458;-0.110;2022-12-07T08:56:21;102148.34;;;8.20;58.82
74615;BME280;63121;51.458;-0.110;2022-12-07T08:58:47;102148.34;;;8.18;58.94
74615;BME280;63121;51.458;-0.110;2022-12-07T09:01:13;102147.97;;;8.03;59.20
74615;BME280;63121;51.458;-0.110;2022-12-07T09:03:39;102142.56;;;8.30;59.21
74615;BME280;63121;51.458;-0.110;2022-12-07T09:06:04;102147.47;;;8.19;59.05
74615;BME280;63121;51.458;-0.110;2022-12-07T09:08:33;102146.00;;;7.91;59.91
74615;BME280;63121;51.458;-0.110;2022-12-07T09:11:00;102145.06;;;7.87;59.93
74615;BME280;63121;51.458;-0.110;2022-12-07T09:13:25;102150.59;;;7.68;59.94
74615;BME280;63121;51.458;-0.110;2022-12-07T09:15:50;102143.81;;;7.71;60.42
74615;BME280;63121;51.458;-0.110;2022-12-07T09:18:16;102142.00;;;7.66;60.50
74615;BME280;63121;51.458;-0.110;2022-12-07T09:20:41;102134.97;;;7.97;59.09
74615;BME280;63121;51.458;-0.110;2022-12-07T09:23:06;102137.00;;;8.10;58.83
74615;BME280;63121;51.458;-0.110;2022-12-07T09:25:33;102140.13;;;7.97;58.42
74615;BME280;63121;51.458;-0.110;2022-12-07T09:27:58;102135.81;;;8.35;58.12
74615;BME280;63121;51.458;-0.110;2022-12-07T09:30:25;102135.09;;;8.01;58.31
74615;BME280;63121;51.458;-0.110;2022-12-07T09:32:53;102138.56;;;8.03;58.82
74615;BME280;63121;51.458;-0.110;2022-12-07T09:35:18;102136.09;;;8.09;58.62
74615;BME280;63121;51.458;-0.110;2022-12-07T09:37:43;102130.06;;;8.06;58.61
74615;BME280;63121;51.458;-0.110;2022-12-07T09:40:09;102135.56;;;8.23;57.75
74615;BME280;63121;51.458;-0.110;2022-12-07T09:42:39;102128.28;;;8.41;57.79
74615;BME280;63121;51.458;-0.110;2022-12-07T09:45:22;102125.31;;;8.65;56.33
74615;BME280;63121;51.458;-0.110;2022-12-07T09:47:48;102118.41;;;8.63;56.76
74615;BME280;63121;51.458;-0.110;2022-12-07T09:50:18;102119.50;;;8.33;57.39
74615;BME280;63121;51.458;-0.110;2022-12-07T09:52:44;102125.72;;;8.05;58.37
74615;BME280;63121;51.458;-0.110;2022-12-07T09:55:16;102119.69;;;8.03;58.19
74615;BME280;63121;51.458;-0.110;2022-12-07T09:57:43;102125.28;;;8.23;57.68
74615;BME280;63121;51.458;-0.110;2022-12-07T10:00:17;102120.28;;;8.30;57.62
74615;BME280;63121;51.458;-0.110;2022-12-07T10:05:47;102121.78;;;8.60;56.85
74615;BME280;63121;51.458;-0.110;2022-12-07T10:08:15;102119.13;;;8.16;58.63
74615;BME280;63121;51.458;-0.110;2022-12-07T10:10:43;102113.31;;;8.25;58.04
74615;BME280;63121;51.458;-0.110;2022-12-07T10:13:14;102123.50;;;8.61;57.17
74615;BME280;63121;51.458;-0.110;2022-12-07T10:18:26;102123.03;;;13.10;72.22
74615;BME280;63121;51.458;-0.110;2022-12-07T10:23:37;102119.59;;;15.44;66.52
74615;BME280;63121;51.458;-0.110;2022-12-07T10:26:35;102107.47;;;16.26;62.17
74615;BME280;63121;51.458;-0.110;2022-12-07T10:29:27;102107.31;;;17.01;59.35
74615;BME280;63121;51.458;-0.110;2022-12-07T10:34:32;102096.22;;;17.89;55.44
74615;BME280;63121;51.458;-0.110;2022-12-07T10:39:48;102088.88;;;18.50;52.63
74615;BME280;63121;51.458;-0.110;2022-12-07T10:42:23;102085.63;;;18.76;51.69
74615;BME280;63121;51.458;-0.110;2022-12-07T10:45:06;102091.28;;;18.98;51.48
74615;BME280;63121;51.458;-0.110;2022-12-07T10:47:51;102086.34;;;19.20;50.52
74615;BME280;63121;51.458;-0.110;2022-12-07T11:11:38;102080.78;;;19.98;48.45
74615;BME280;63121;51.458;-0.110;2022-12-07T11:14:17;102071.22;;;19.97;47.83
74615;BME280;63121;51.458;-0.110;2022-12-07T11:16:59;102063.31;;;19.99;47.72
74615;BME280;63121;51.458;-0.110;2022-12-07T11:20:15;102062.38;;;20.01;47.84
74615;BME280;63121;51.458;-0.110;2022-12-07T11:22:43;102056.13;;;20.05;47.76
74615;BME280;63121;51.458;-0.110;2022-12-07T11:25:24;102048.31;;;20.04;47.77
74615;BME280;63121;51.458;-0.110;2022-12-07T11:28:07;102057.03;;;20.04;47.73
74615;BME280;63121;51.458;-0.110;2022-12-07T11:30:55;102049.13;;;20.06;48.14
74615;BME280;63121;51.458;-0.110;2022-12-07T11:36:44;102036.06;;;20.04;47.63
74615;BME280;63121;51.458;-0.110;2022-12-07T11:42:28;102027.47;;;19.99;47.95
74615;BME280;63121;51.458;-0.110;2022-12-07T11:45:16;102028.19;;;20.04;47.65
74615;BME280;63121;51.458;-0.110;2022-12-07T11:47:58;102023.94;;;20.00;48.02
74615;BME280;63121;51.458;-0.110;2022-12-07T11:50:40;102019.66;;;19.98;48.39
74615;BME280;63121;51.458;-0.110;2022-12-07T11:53:44;102021.25;;;20.03;47.58
74615;BME280;63121;51.458;-0.110;2022-12-07T11:56:20;102016.03;;;20.02;47.73
74615;BME280;63121;51.458;-0.110;2022-12-07T11:58:56;102020.47;;;20.00;47.37
74615;BME280;63121;51.458;-0.110;2022-12-07T12:04:19;102012.72;;;19.97;47.76
74615;BME280;63121;51.458;-0.110;2022-12-07T12:06:48;102009.34;;;19.92;47.58
74615;BME280;63121;51.458;-0.110;2022-12-07T12:23:24;101960.50;;;19.89;47.44
74615;BME280;63121;51.458;-0.110;2022-12-07T12:26:02;101953.53;;;19.88;47.60
74615;BME280;63121;51.458;-0.110;2022-12-07T12:28:49;101958.66;;;19.93;47.73
74615;BME280;63121;51.458;-0.110;2022-12-07T12:31:37;101959.56;;;19.92;47.83
74615;BME280;63121;51.458;-0.110;2022-12-07T12:34:31;101954.44;;;19.88;47.88
74615;BME280;63121;51.458;-0.110;2022-12-07T12:36:57;101961.34;;;19.91;47.21
74615;BME280;63121;51.458;-0.110;2022-12-07T12:39:23;101954.44;;;19.88;47.41
74615;BME280;63121;51.458;-0.110;2022-12-07T12:41:56;101954.34;;;19.90;47.45
74615;BME280;63121;51.458;-0.110;2022-12-07T12:54:26;101935.13;;;19.91;47.72
74615;BME280;63121;51.458;-0.110;2022-12-07T12:59:30;101931.88;;;19.83;48.23
74615;BME280;63121;51.458;-0.110;2022-12-07T13:02:09;101924.88;;;19.83;48.46
74615;BME280;63121;51.458;-0.110;2022-12-07T13:04:50;101925.00;;;19.79;48.91
74615;BME280;63121;51.458;-0.110;2022-12-07T13:12:59;101918.16;;;19.75;48.84
74615;BME280;63121;51.458;-0.110;2022-12-07T13:20:49;101901.47;;;19.77;49.15
74615;BME280;63121;51.458;-0.110;2022-12-07T13:23:18;101894.50;;;19.78;48.99
74615;BME280;63121;51.458;-0.110;2022-12-07T13:28:18;101886.38;;;19.85;49.19
74615;BME280;63121;51.458;-0.110;2022-12-07T13:30:50;101891.47;;;19.90;48.63
74615;BME280;63121;51.458;-0.110;2022-12-07T13:33:19;101881.91;;;19.89;48.68
74615;BME280;63121;51.458;-0.110;2022-12-07T13:35:45;101885.28;;;19.93;48.92
74615;BME280;63121;51.458;-0.110;2022-12-07T13:38:25;101884.47;;;19.90;48.65
74615;BME280;63121;51.458;-0.110;2022-12-07T13:41:12;101885.34;;;19.91;49.11
74615;BME280;63121;51.458;-0.110;2022-12-07T13:43:46;101881.72;;;19.95;48.71
74615;BME280;63121;51.458;-0.110;2022-12-07T13:46:13;101873.94;;;19.92;48.52
74615;BME280;63121;51.458;-0.110;2022-12-07T13:48:49;101868.56;;;19.97;48.67
74615;BME280;63121;51.458;-0.110;2022-12-07T13:51:19;101864.31;;;19.93;48.80
74615;BME280;63121;51.458;-0.110;2022-12-07T13:53:49;101861.75;;;19.91;48.96
74615;BME280;63121;51.458;-0.110;2022-12-07T13:56:16;101854.72;;;19.92;48.98
74615;BME280;63121;51.458;-0.110;2022-12-07T13:58:41;101853.06;;;19.89;48.88
74615;BME280;63121;51.458;-0.110;2022-12-07T14:01:07;101845.22;;;19.89;48.68
74615;BME280;63121;51.458;-0.110;2022-12-07T14:03:34;101845.06;;;19.94;49.09
74615;BME280;63121;51.458;-0.110;2022-12-07T14:06:15;101846.69;;;19.98;48.86
74615;BME280;63121;51.458;-0.110;2022-12-07T14:08:41;101841.53;;;19.95;49.13
74615;BME280;63121;51.458;-0.110;2022-12-07T14:11:14;101838.84;;;19.96;49.31
74615;BME280;63121;51.458;-0.110;2022-12-07T14:18:41;101830.72;;;20.05;48.50
74615;BME280;63121;51.458;-0.110;2022-12-07T14:23:36;101830.31;;;20.18;47.97
74615;BME280;63121;51.458;-0.110;2022-12-07T14:26:20;101832.13;;;20.16;48.42
74615;BME280;63121;51.458;-0.110;2022-12-07T14:28:47;101833.00;;;20.15;48.94
74615;BME280;63121;51.458;-0.110;2022-12-07T14:31:13;101827.94;;;20.10;49.70
74615;BME280;63121;51.458;-0.110;2022-12-07T14:33:40;101828.78;;;20.10;49.59
74615;BME280;63121;51.458;-0.110;2022-12-07T14:36:09;101821.03;;;20.07;49.77
74615;BME280;63121;51.458;-0.110;2022-12-07T14:38:34;101818.28;;;20.10;50.29
74615;BME280;63121;51.458;-0.110;2022-12-07T14:41:00;101815.63;;;20.12;49.81
74615;BME280;63121;51.458;-0.110;2022-12-07T14:43:44;101814.81;;;20.10;50.01
74615;BME280;63121;51.458;-0.110;2022-12-07T14:46:09;101814.81;;;20.10;49.95
74615;BME280;63121;51.458;-0.110;2022-12-07T14:48:34;101806.97;;;20.10;50.30
74615;BME280;63121;51.458;-0.110;2022-12-07T14:51:00;101813.81;;;20.14;50.19
74615;BME280;63121;51.458;-0.110;2022-12-07T14:53:30;101807.72;;;20.14;49.88
74615;BME280;63121;51.458;-0.110;2022-12-07T14:55:58;101810.19;;;20.18;50.10
74615;BME280;63121;51.458;-0.110;2022-12-07T14:58:24;101808.44;;;20.17;50.38